aviador You're here:

LFPM Decoded Metar

MELUN in FRANCE
Report Time2018-07-21 08:00:00
UTC Time2018-07-21 08:11:36
Flight Rules vfr VFR
Wind270° at 06 kt
W.Decomp.*RWY 28: 5.9 kt HW 1 kt LCW
RWY 19: 1.0 kt HW 5.9 kt RCW
W.Rank270° ranks 16
Current wind is below 270° avg. (7.6)
Visibility9999 m
Phenomena:N/A
Clouds:N/A
Expected CloudBase > 2,400 ft AGL from Temp-Dew spread
CeilingNone
Temp20°C (ISA +6)
Dew Point14°C (69% RH)
AAT19.1°C
QNH1014 hPa
Density Alt1,138 ft
Elevation302 ft
Report Wrong Elevation
Raw Report
METAR LFPM 210800Z AUTO 27006KT 230V300 CAVOK 20/14 Q1014=

Extra information for LFPM:More info

Metar Taf Metar & Taf Last 4 Metars F.Rules Stats Wind Profile Meteogram Temp Stats Airport Information Weather charts Add Link Nearby VenuesMetar ALERT Operation Metar Decoded Social comments